Airfield :
LOGIN :

Register | Disclaimer

   EN    FR    IT 

 










Legend :    VFR   Marginal VFR   IFR   Intensive IFR   Very Intensive IFR
Visi :
Ceiling :
>= 8 km
>= 3000ft
5 to 8 km
1000 to 3000 ft
1500m to 5 km
500 to 1000 ft
800 to 1500m
200 to 500 ft
< 800m
< 200 ft
Symbols :   Thunderstorms  Fog  Heavy snow  Heavy precipitations  Wind > 20 kt
SIGMETs :     Misc.  Thunderstorms  Icing  Turbulence  Mountain Waves  Volcanic Ashes







- Airport Elevation : 326 ft
- IATA code : LCG
- Download approach charts


LECO - A Coruna

CURRENT METAR :
  • 211730Z 02005KT 320V060 CAVOK 17/08 Q1024 NOSIG

EXPIRED METARs :
  • 211700Z 03007KT 340V070 CAVOK 17/08 Q1024 NOSIG
  • 211630Z 36006KT 320V070 CAVOK 18/08 Q1024 NOSIG
  • 211600Z 35006KT 310V050 CAVOK 18/07 Q1024 NOSIG
  • 211530Z 35006KT 300V030 CAVOK 18/06 Q1024 NOSIG
  • 211500Z 01006KT 330V050 CAVOK 17/06 Q1025 NOSIG

TAF TAF LECO
Valid from the 21 at 15:00 until the 22 at 15:00 UTC


211400Z 2115/2215 VRB05KT CAVOK TX17/2214Z TN04/2207Z
PROB30
TEMPO 2115/2118 36010KT
PROB30
TEMPO 2213/2215 35010KT
No reported NOTAMs for that airfield.



MET'MAP, your aeronautical weather chart ! - Copyright ORBIFLY December 2007 - Disclaimer

ORBIFLY MET'MAP TEAM :

Programming & Development : Alexandra Zaïnal
Concept & Development : Baudouin d'Aumeries
Co-Development & Prog : Marc-Olivier Méhu
Technical & hardware support : Manuel Goepfert

Contact : metmap@orbifly.com




SOURCES & CREDITS :

   NOAA